createdAt,value
2023-05-08T00:01:52.831Z,16.12
2023-05-08T00:04:54.236Z,16.04
2023-05-08T00:08:01.162Z,16.01
2023-05-08T00:11:02.691Z,15.98
2023-05-08T00:14:04.262Z,15.98
2023-05-08T00:17:05.829Z,15.95
2023-05-08T00:20:08.673Z,15.98
2023-05-08T00:23:10.148Z,16.04
2023-05-08T00:26:11.644Z,16.08
2023-05-08T00:29:13.161Z,16.05
2023-05-08T00:32:14.758Z,16.00
2023-05-08T00:35:16.417Z,15.92
2023-05-08T00:38:18.125Z,15.86
2023-05-08T00:41:19.513Z,15.81
2023-05-08T00:44:20.918Z,15.81
2023-05-08T00:47:23.365Z,15.85
2023-05-08T00:50:25.608Z,15.92
2023-05-08T00:53:29.744Z,15.92
2023-05-08T00:56:32.440Z,15.91
2023-05-08T00:59:35.787Z,15.92
2023-05-08T01:02:37.338Z,15.86
2023-05-08T01:05:39.056Z,15.84
2023-05-08T01:08:41.437Z,15.85
2023-05-08T01:11:56.038Z,15.90
2023-05-08T01:15:18.274Z,15.93
2023-05-08T01:18:27.950Z,15.98
2023-05-08T01:21:38.410Z,16.01
2023-05-08T01:25:01.925Z,16.02
2023-05-08T01:28:48.272Z,16.01
2023-05-08T01:32:22.563Z,16.01
2023-05-08T01:35:32.546Z,16.01
2023-05-08T01:38:41.403Z,15.92
2023-05-08T01:41:51.167Z,15.97
2023-05-08T01:45:07.562Z,16.02
2023-05-08T01:48:20.994Z,16.06
2023-05-08T01:51:25.285Z,16.08
2023-05-08T01:54:33.734Z,16.07
2023-05-08T01:57:38.215Z,16.04
2023-05-08T02:00:41.344Z,16.03
2023-05-08T02:03:44.514Z,16.05
2023-05-08T02:06:46.726Z,16.05
2023-05-08T02:09:48.978Z,16.07
2023-05-08T02:12:52.002Z,16.03
2023-05-08T02:15:56.046Z,15.98
2023-05-08T02:19:01.533Z,15.98
2023-05-08T02:22:03.945Z,15.90
2023-05-08T02:25:06.366Z,15.92
2023-05-08T02:28:08.665Z,15.95
2023-05-08T02:31:11.944Z,15.96
2023-05-08T02:34:13.392Z,15.96
2023-05-08T02:37:18.089Z,15.94
2023-05-08T02:40:22.388Z,15.93
2023-05-08T02:43:24.159Z,15.91
2023-05-08T02:46:35.920Z,15.92
2023-05-08T02:49:50.316Z,15.90
2023-05-08T02:52:59.452Z,15.88
2023-05-08T02:56:18.667Z,15.86
2023-05-08T02:59:28.158Z,15.89
2023-05-08T03:02:41.314Z,15.93
2023-05-08T03:05:50.838Z,15.94
2023-05-08T03:08:58.460Z,15.94
2023-05-08T03:12:06.311Z,15.93
2023-05-08T03:15:17.498Z,15.92
2023-05-08T03:18:21.057Z,15.93
2023-05-08T03:21:26.427Z,15.94
2023-05-08T03:24:30.193Z,15.90
2023-05-08T03:27:33.175Z,15.91
2023-05-08T03:30:38.210Z,15.90
2023-05-08T03:33:44.044Z,15.88
2023-05-08T03:36:46.025Z,15.88
2023-05-08T03:39:47.668Z,15.85
2023-05-08T03:42:50.547Z,15.86
2023-05-08T03:45:52.794Z,15.83
2023-05-08T03:48:55.091Z,15.82
2023-05-08T03:51:56.955Z,15.83
2023-05-08T03:54:58.526Z,15.84
2023-05-08T03:58:37.924Z,15.85
2023-05-08T04:01:48.582Z,15.82
2023-05-08T04:04:55.605Z,15.79
2023-05-08T04:08:09.532Z,15.76
2023-05-08T04:11:34.962Z,15.78
2023-05-08T04:14:53.642Z,15.79
2023-05-08T04:18:04.666Z,15.79
2023-05-08T04:21:11.378Z,15.77
2023-05-08T04:24:16.572Z,15.75
2023-05-08T04:27:20.487Z,15.72
2023-05-08T04:30:22.140Z,15.75
2023-05-08T04:33:24.991Z,15.77
2023-05-08T04:36:29.396Z,15.77
2023-05-08T04:39:31.413Z,15.77
2023-05-08T04:42:36.359Z,15.78
2023-05-08T04:45:38.353Z,15.76
2023-05-08T04:48:40.347Z,15.69
2023-05-08T04:51:41.794Z,15.66
2023-05-08T04:54:43.453Z,15.67
2023-05-08T04:57:45.739Z,15.69
2023-05-08T05:00:47.337Z,15.64
2023-05-08T05:03:48.953Z,15.61
2023-05-08T05:06:50.597Z,15.66
2023-05-08T05:09:52.136Z,15.70
2023-05-08T05:12:53.842Z,15.70
2023-05-08T05:15:56.095Z,15.74
2023-05-08T05:18:58.324Z,15.71
2023-05-08T05:21:59.974Z,15.69
2023-05-08T05:25:01.766Z,15.68
2023-05-08T05:28:03.827Z,15.73
2023-05-08T05:31:05.438Z,15.72
2023-05-08T05:34:07.151Z,15.73
2023-05-08T05:37:08.638Z,15.72
2023-05-08T05:40:13.028Z,15.73
2023-05-08T05:43:14.514Z,15.75
2023-05-08T05:46:16.315Z,15.74
2023-05-08T05:49:17.833Z,15.75
2023-05-08T05:52:19.297Z,15.76
2023-05-08T05:55:22.005Z,15.77
2023-05-08T05:58:23.483Z,15.78
2023-05-08T06:01:25.980Z,15.78
2023-05-08T06:04:27.692Z,15.79
2023-05-08T06:07:29.204Z,15.79
2023-05-08T06:10:31.027Z,15.73
2023-05-08T06:13:32.837Z,15.76
2023-05-08T06:16:35.581Z,15.77
2023-05-08T06:19:37.277Z,15.77
2023-05-08T06:22:40.022Z,15.75
2023-05-08T06:25:41.424Z,15.81
2023-05-08T06:28:42.930Z,15.83
2023-05-08T06:31:44.648Z,15.83
2023-05-08T06:34:46.117Z,15.85
2023-05-08T06:37:47.518Z,15.84
2023-05-08T06:40:50.599Z,15.90
2023-05-08T06:43:51.992Z,15.87
2023-05-08T06:46:53.420Z,15.89
2023-05-08T06:49:54.944Z,15.96
2023-05-08T06:52:56.430Z,15.98
2023-05-08T06:55:58.682Z,16.00
2023-05-08T06:59:08.534Z,16.01
2023-05-08T07:02:11.537Z,15.97
2023-05-08T07:05:13.178Z,16.04
2023-05-08T07:08:14.841Z,16.04
2023-05-08T07:11:16.228Z,15.96
2023-05-08T07:14:17.630Z,15.99
2023-05-08T07:17:19.025Z,16.00
2023-05-08T07:20:21.274Z,16.03
2023-05-08T07:23:23.050Z,16.05
2023-05-08T07:26:24.472Z,16.16
2023-05-08T07:29:26.897Z,16.07
2023-05-08T07:32:28.384Z,16.08
2023-05-08T07:35:30.044Z,16.06
2023-05-08T07:38:31.570Z,16.06
2023-05-08T07:41:32.982Z,15.96
2023-05-08T07:44:43.484Z,15.80
2023-05-08T07:47:50.763Z,15.86
2023-05-08T07:50:52.362Z,15.89
2023-05-08T07:53:54.981Z,15.96
2023-05-08T07:56:56.499Z,15.96
2023-05-08T08:00:01.804Z,15.95
2023-05-08T08:03:03.603Z,16.01
2023-05-08T08:06:05.183Z,16.01
2023-05-08T08:09:06.624Z,15.99
2023-05-08T08:12:08.075Z,15.99
2023-05-08T08:15:09.880Z,16.04
2023-05-08T08:18:11.396Z,16.13
2023-05-08T08:21:12.849Z,16.18
2023-05-08T08:24:14.381Z,16.28
2023-05-08T08:27:15.793Z,16.36
2023-05-08T08:30:18.502Z,16.29
2023-05-08T08:33:20.265Z,16.32
2023-05-08T08:36:21.824Z,16.37
2023-05-08T08:39:23.354Z,16.38
2023-05-08T08:42:25.093Z,16.47
2023-05-08T08:45:26.468Z,16.46
2023-05-08T08:48:28.625Z,16.43
2023-05-08T08:51:52.101Z,16.50
2023-05-08T08:54:56.721Z,16.56
2023-05-08T08:58:06.309Z,16.59
2023-05-08T09:01:09.329Z,16.45
2023-05-08T09:04:11.282Z,16.53
2023-05-08T09:07:13.214Z,16.50
2023-05-08T09:10:15.769Z,16.54
2023-05-08T09:13:19.776Z,16.49
2023-05-08T09:16:22.388Z,16.58
2023-05-08T09:19:27.068Z,16.66
2023-05-08T09:22:30.314Z,16.72
2023-05-08T09:25:47.861Z,16.71
2023-05-08T09:29:13.648Z,16.67
2023-05-08T09:32:18.738Z,16.62
2023-05-08T09:35:20.190Z,16.58
2023-05-08T09:38:37.592Z,16.64
2023-05-08T09:41:39.402Z,16.65
2023-05-08T09:44:46.248Z,16.58
2023-05-08T09:47:48.613Z,16.61
2023-05-08T09:51:05.493Z,16.54
2023-05-08T09:54:17.878Z,16.51
2023-05-08T09:57:19.279Z,16.58
2023-05-08T10:00:21.169Z,16.54
2023-05-08T10:03:22.676Z,16.47
2023-05-08T10:06:25.276Z,16.43
2023-05-08T10:09:30.799Z,16.42
2023-05-08T10:12:41.514Z,16.41
2023-05-08T10:15:44.091Z,16.42
2023-05-08T10:18:50.673Z,16.47
2023-05-08T10:21:55.913Z,16.60
2023-05-08T10:25:00.748Z,16.72
2023-05-08T10:28:27.127Z,16.81
2023-05-08T10:31:28.928Z,16.76
2023-05-08T10:34:32.279Z,16.70
2023-05-08T10:37:36.235Z,16.78
2023-05-08T10:40:38.130Z,16.93
2023-05-08T10:43:42.917Z,17.14
2023-05-08T10:46:52.983Z,17.32
2023-05-08T10:50:06.010Z,17.37
2023-05-08T10:53:16.870Z,17.49
2023-05-08T10:56:18.250Z,17.57
2023-05-08T10:59:20.230Z,17.60
2023-05-08T11:02:30.264Z,17.69
2023-05-08T11:05:46.189Z,17.77
2023-05-08T11:08:54.341Z,17.72
2023-05-08T11:12:25.690Z,17.61
2023-05-08T11:15:37.422Z,17.78
2023-05-08T11:19:17.551Z,17.71
2023-05-08T11:22:32.749Z,17.71
2023-05-08T11:25:44.685Z,18.07
2023-05-08T11:28:58.743Z,18.07
2023-05-08T11:32:00.399Z,18.34
2023-05-08T11:35:01.887Z,18.50
2023-05-08T11:38:38.898Z,18.54
2023-05-08T11:41:40.917Z,18.62
2023-05-08T11:44:42.476Z,18.56
2023-05-08T11:47:45.095Z,18.75
2023-05-08T11:50:47.096Z,18.86
2023-05-08T11:53:48.537Z,18.84
2023-05-08T11:56:51.562Z,18.80
2023-05-08T11:59:52.952Z,18.85
2023-05-08T12:02:54.640Z,18.85
2023-05-08T12:05:57.989Z,18.87
2023-05-08T12:09:00.717Z,18.98
2023-05-08T12:12:02.150Z,19.01
2023-05-08T12:15:14.021Z,19.14
2023-05-08T12:18:17.052Z,19.06
2023-05-08T12:21:19.510Z,19.22
2023-05-08T12:24:23.658Z,19.44
2023-05-08T12:27:25.195Z,19.52
2023-05-08T12:30:27.044Z,19.63
2023-05-08T12:33:29.220Z,19.76
2023-05-08T12:36:35.194Z,20.02
2023-05-08T12:39:37.583Z,19.94
2023-05-08T12:42:49.951Z,20.23
2023-05-08T12:45:52.540Z,20.38
2023-05-08T12:49:01.474Z,20.26
2023-05-08T12:52:13.261Z,20.40
2023-05-08T12:55:23.189Z,20.75
2023-05-08T12:58:26.878Z,20.84
2023-05-08T13:01:28.321Z,21.08
2023-05-08T13:04:30.072Z,20.87
2023-05-08T13:07:32.190Z,21.03
2023-05-08T13:10:54.154Z,20.75
2023-05-08T13:13:55.527Z,20.99
2023-05-08T13:16:57.060Z,21.25
2023-05-08T13:19:59.103Z,21.32
2023-05-08T13:23:00.702Z,21.42
2023-05-08T13:26:02.138Z,21.37
2023-05-08T13:29:03.532Z,21.70
2023-05-08T13:32:05.057Z,21.73
2023-05-08T13:35:06.790Z,21.79
2023-05-08T13:38:08.172Z,21.52
2023-05-08T13:41:09.561Z,21.71
2023-05-08T13:44:10.966Z,21.91
2023-05-08T13:47:12.465Z,21.96
2023-05-08T13:50:15.834Z,21.73
2023-05-08T13:53:17.246Z,21.61
2023-05-08T13:56:18.620Z,21.89
2023-05-08T13:59:20.128Z,21.85
2023-05-08T14:02:21.650Z,21.76
2023-05-08T14:05:23.117Z,21.41
2023-05-08T14:08:24.506Z,21.04
2023-05-08T14:11:26.823Z,21.03
2023-05-08T14:14:28.271Z,20.92
2023-05-08T14:17:29.755Z,21.06
2023-05-08T14:20:31.342Z,21.14
2023-05-08T14:23:32.724Z,20.93
2023-05-08T14:26:34.355Z,20.99
2023-05-08T14:29:38.822Z,21.09
2023-05-08T14:32:42.601Z,20.84
2023-05-08T14:35:44.088Z,20.79
2023-05-08T14:38:45.573Z,21.02
2023-05-08T14:42:05.266Z,21.23
2023-05-08T14:45:09.188Z,21.51
2023-05-08T14:48:10.643Z,21.69
2023-05-08T14:51:13.893Z,21.41
2023-05-08T14:54:15.432Z,21.32
2023-05-08T14:57:16.846Z,21.31
2023-05-08T15:00:18.696Z,21.12
2023-05-08T15:03:20.394Z,21.07
2023-05-08T15:06:23.853Z,20.69
2023-05-08T15:09:25.387Z,20.71
2023-05-08T15:12:26.888Z,20.52
2023-05-08T15:15:28.413Z,20.51
2023-05-08T15:18:29.837Z,20.62
2023-05-08T15:21:31.308Z,20.44
2023-05-08T15:24:32.817Z,20.50
2023-05-08T15:27:34.210Z,20.44
2023-05-08T15:30:35.571Z,20.45
2023-05-08T15:33:36.969Z,20.49
2023-05-08T15:36:38.447Z,20.39
2023-05-08T15:39:40.378Z,20.46
2023-05-08T15:42:41.747Z,20.43
2023-05-08T15:45:43.205Z,20.32
2023-05-08T15:48:45.012Z,20.21
2023-05-08T15:51:46.466Z,20.16
2023-05-08T15:54:48.592Z,19.92
2023-05-08T15:57:49.980Z,19.87
2023-05-08T16:00:51.405Z,19.86
2023-05-08T16:03:52.810Z,19.98
2023-05-08T16:06:55.737Z,20.07
2023-05-08T16:09:57.173Z,19.95
2023-05-08T16:12:58.655Z,19.85
2023-05-08T16:16:06.545Z,19.87
2023-05-08T16:19:08.289Z,19.97
2023-05-08T16:22:09.701Z,19.92
2023-05-08T16:25:11.268Z,20.01
2023-05-08T16:28:12.930Z,20.05
2023-05-08T16:31:15.765Z,19.96
2023-05-08T16:34:17.511Z,19.91
2023-05-08T16:37:19.497Z,19.89
2023-05-08T16:40:21.020Z,19.87
2023-05-08T16:43:22.405Z,20.00
2023-05-08T16:46:29.826Z,19.98
2023-05-08T16:49:31.996Z,19.96
2023-05-08T16:52:33.383Z,19.92
2023-05-08T16:55:37.093Z,19.87
2023-05-08T16:58:38.594Z,19.86
2023-05-08T17:01:40.136Z,19.84
2023-05-08T17:04:41.620Z,19.82
2023-05-08T17:07:43.162Z,19.61
2023-05-08T17:10:44.599Z,19.61
2023-05-08T17:13:47.370Z,19.54
2023-05-08T17:16:49.091Z,19.65
2023-05-08T17:19:50.567Z,19.67
2023-05-08T17:22:53.724Z,19.64
2023-05-08T17:25:58.204Z,19.58
2023-05-08T17:29:00.653Z,19.58
2023-05-08T17:32:02.494Z,19.59
2023-05-08T17:35:04.080Z,19.61
2023-05-08T17:38:05.541Z,19.53
2023-05-08T17:41:07.465Z,19.50
2023-05-08T17:44:08.931Z,19.46
2023-05-08T17:47:10.502Z,19.30
2023-05-08T17:50:12.325Z,19.25
2023-05-08T17:53:14.026Z,19.22
2023-05-08T17:56:20.224Z,19.18
2023-05-08T17:59:21.675Z,19.20
2023-05-08T18:02:23.156Z,19.16
2023-05-08T18:05:24.692Z,19.18
2023-05-08T18:08:26.076Z,19.11
2023-05-08T18:11:27.667Z,19.12
2023-05-08T18:14:31.136Z,19.14
2023-05-08T18:17:32.552Z,19.13
2023-05-08T18:20:34.063Z,19.07
2023-05-08T18:23:35.528Z,19.02
2023-05-08T18:26:37.938Z,19.06
2023-05-08T18:29:39.477Z,18.98
2023-05-08T18:32:41.085Z,18.91
2023-05-08T18:35:42.594Z,18.88
2023-05-08T18:38:44.134Z,18.89
2023-05-08T18:41:45.599Z,18.86
2023-05-08T18:44:47.084Z,18.82
2023-05-08T18:47:49.092Z,18.76
2023-05-08T18:50:50.817Z,18.72
2023-05-08T18:53:52.533Z,18.75
2023-05-08T18:56:54.230Z,18.72
2023-05-08T18:59:55.652Z,18.60
2023-05-08T19:02:57.112Z,18.60
2023-05-08T19:05:58.583Z,18.65
2023-05-08T19:08:59.977Z,18.57
2023-05-08T19:12:01.651Z,18.45
2023-05-08T19:15:03.716Z,18.48
2023-05-08T19:18:05.614Z,18.37
2023-05-08T19:21:07.646Z,18.36
2023-05-08T19:24:09.123Z,18.29
2023-05-08T19:27:10.578Z,18.26
2023-05-08T19:30:12.595Z,18.23
2023-05-08T19:33:14.498Z,18.23
2023-05-08T19:36:16.339Z,18.15
2023-05-08T19:39:18.618Z,18.18
2023-05-08T19:42:20.203Z,18.18
2023-05-08T19:45:21.740Z,18.18
2023-05-08T19:48:23.823Z,18.24
2023-05-08T19:51:26.174Z,18.24
2023-05-08T19:54:29.988Z,18.17
2023-05-08T19:57:31.386Z,18.24
2023-05-08T20:00:33.623Z,18.26
2023-05-08T20:03:35.302Z,18.26
2023-05-08T20:06:38.210Z,18.27
2023-05-08T20:09:39.637Z,18.28
2023-05-08T20:12:41.013Z,18.21
2023-05-08T20:15:42.461Z,18.22
2023-05-08T20:18:44.656Z,18.20
2023-05-08T20:21:46.795Z,18.17
2023-05-08T20:24:48.588Z,18.12
2023-05-08T20:27:50.016Z,18.03
2023-05-08T20:30:52.068Z,17.96
2023-05-08T20:33:54.100Z,17.93
2023-05-08T20:36:57.732Z,17.93
2023-05-08T20:39:59.600Z,17.88
2023-05-08T20:43:00.992Z,17.87
2023-05-08T20:46:02.650Z,17.86
2023-05-08T20:49:06.038Z,17.90
2023-05-08T20:52:07.514Z,17.91
2023-05-08T20:55:09.378Z,17.86
2023-05-08T20:58:10.772Z,17.82
2023-05-08T21:01:12.608Z,17.80
2023-05-08T21:04:14.078Z,17.71
2023-05-08T21:07:15.470Z,17.66
2023-05-08T21:10:17.230Z,17.62
2023-05-08T21:13:18.997Z,17.62
2023-05-08T21:16:20.459Z,17.59
2023-05-08T21:19:22.361Z,17.55
2023-05-08T21:22:23.825Z,17.53
2023-05-08T21:25:25.429Z,17.56
2023-05-08T21:28:26.965Z,17.48
2023-05-08T21:31:28.803Z,17.47
2023-05-08T21:34:30.317Z,17.47
2023-05-08T21:37:32.530Z,17.40
2023-05-08T21:40:34.951Z,17.42
2023-05-08T21:43:36.756Z,17.37
2023-05-08T21:46:41.529Z,17.35
2023-05-08T21:49:43.043Z,17.39
2023-05-08T21:52:44.479Z,17.38
2023-05-08T21:55:46.208Z,17.38
2023-05-08T21:58:48.925Z,17.42
2023-05-08T22:01:50.971Z,17.42
2023-05-08T22:04:52.630Z,17.38
2023-05-08T22:07:54.216Z,17.35
2023-05-08T22:10:55.907Z,17.35
2023-05-08T22:13:57.331Z,17.33
2023-05-08T22:16:58.704Z,17.34
2023-05-08T22:20:00.131Z,17.28
2023-05-08T22:23:01.713Z,17.20
2023-05-08T22:26:03.197Z,17.13
2023-05-08T22:29:04.658Z,17.08
2023-05-08T22:32:08.135Z,17.05
2023-05-08T22:35:09.998Z,17.03
2023-05-08T22:38:11.362Z,17.00
2023-05-08T22:41:12.730Z,16.96
2023-05-08T22:44:14.112Z,16.86
2023-05-08T22:47:15.997Z,16.90
2023-05-08T22:50:17.501Z,16.88
2023-05-08T22:53:18.897Z,16.89
2023-05-08T22:56:21.044Z,16.86
2023-05-08T22:59:22.457Z,16.89
2023-05-08T23:02:24.133Z,16.88
2023-05-08T23:05:25.868Z,16.86
2023-05-08T23:08:27.739Z,16.83
2023-05-08T23:11:29.164Z,16.83
2023-05-08T23:14:30.554Z,16.86
2023-05-08T23:17:31.953Z,16.84
2023-05-08T23:20:33.372Z,16.82
2023-05-08T23:23:35.200Z,16.82
2023-05-08T23:26:36.601Z,16.80
2023-05-08T23:29:37.989Z,16.79
2023-05-08T23:32:39.657Z,16.78
2023-05-08T23:35:41.069Z,16.80
2023-05-08T23:38:42.484Z,16.78
2023-05-08T23:41:43.968Z,16.76
2023-05-08T23:44:45.354Z,16.79
2023-05-08T23:47:46.794Z,16.78
2023-05-08T23:50:48.255Z,16.78
2023-05-08T23:53:50.436Z,16.75
2023-05-08T23:56:51.848Z,16.78
2023-05-08T23:59:53.248Z,16.78
